Terminal Aerodrome Forecast
Issued by NWS

Home | Current Version | Previous Version | Text Only | Print | Product List | Glossary On
Versions: 1 2 3 4 5 6 7 8 9 10 11 12
000
FTUS45 KRIW 241735
TAFWRL
TAF
KWRL 241735Z 2418/2518 18010KT P6SM SKC
     FM242000 24017G27KT P6SM SCT080
     FM250200 34016KT P6SM SCT080
     FM250600 31009KT P6SM FEW090=

USA.gov is the U.S. government's official web portal to all federal, state and local government web resources and services.